Time;durP1;ratioP1;P1;durP2;ratioP2;P2;SDS_P1;SDS_P2;PMS_P1;PMS_P2;Temp;Humidity;BMP_temperature;BMP_pressure;BME280_temperature;BME280_humidity;BME280_pressure;Samples;Min_cycle;Max_cycle;Signal;HPM_P1;HPM_P2
2023/05/26 00:00:04;;;;;;;9.82;5.88;;;14.20;99.90;;;;;;4967482;28;20046;-72
2023/05/26 00:02:30;;;;;;;9.43;6.13;;;14.20;99.90;;;;;;4965039;28;20854;-72
2023/05/26 00:04:59;;;;;;;9.00;5.82;;;14.20;99.90;;;;;;4967512;28;20109;-72
2023/05/26 00:07:25;;;;;;;10.27;5.97;;;14.20;99.90;;;;;;4965420;28;20039;-73
2023/05/26 00:09:51;;;;;;;10.80;5.47;;;14.20;99.90;;;;;;4969598;28;20031;-72
2023/05/26 00:12:17;;;;;;;14.52;6.35;;;14.20;99.90;;;;;;4967089;28;20026;-73
2023/05/26 00:14:43;;;;;;;9.60;5.55;;;14.10;99.90;;;;;;4966879;28;20521;-73
2023/05/26 00:17:12;;;;;;;8.68;5.20;;;14.10;99.90;;;;;;4970548;28;20054;-73
2023/05/26 00:19:38;;;;;;;10.70;5.97;;;14.10;99.90;;;;;;4967735;28;20019;-72
2023/05/26 00:22:07;;;;;;;9.63;5.90;;;14.10;99.90;;;;;;4966053;28;20469;-72
2023/05/26 00:24:33;;;;;;;6.57;5.40;;;14.10;99.90;;;;;;4969658;28;20118;-72
2023/05/26 00:26:58;;;;;;;9.13;5.07;;;14.10;99.90;;;;;;4969656;28;20094;-74
2023/05/26 00:29:30;;;;;;;10.02;5.65;;;14.00;99.90;;;;;;4968102;28;20066;-73
2023/05/26 00:31:56;;;;;;;13.57;6.07;;;14.00;99.90;;;;;;4973117;28;20039;-73
2023/05/26 00:34:22;;;;;;;10.80;5.55;;;14.00;99.90;;;;;;4971809;28;20561;-71
2023/05/26 00:36:48;;;;;;;10.13;5.72;;;14.00;99.90;;;;;;4972948;28;20026;-72
2023/05/26 00:39:13;;;;;;;8.02;5.18;;;13.90;99.90;;;;;;4967754;28;20049;-71
2023/05/26 00:41:39;;;;;;;13.98;5.68;;;13.90;99.90;;;;;;4965522;28;20042;-73
2023/05/26 00:44:08;;;;;;;10.48;6.07;;;13.90;99.90;;;;;;4968998;28;20027;-72
2023/05/26 00:46:34;;;;;;;10.55;5.85;;;13.80;99.90;;;;;;4970537;28;20015;-72
2023/05/26 00:49:06;;;;;;;16.00;6.03;;;13.80;99.90;;;;;;4969738;28;20034;-72
2023/05/26 00:51:32;;;;;;;8.85;5.57;;;13.80;99.90;;;;;;4968554;28;20092;-72
2023/05/26 00:54:02;;;;;;;9.77;6.15;;;13.80;99.90;;;;;;4969470;28;20062;-72
2023/05/26 00:56:28;;;;;;;10.50;5.78;;;13.70;99.90;;;;;;4970228;28;20031;-72
2023/05/26 00:58:58;;;;;;;11.77;6.78;;;13.80;99.90;;;;;;4966962;28;20067;-72
2023/05/26 01:01:25;;;;;;;8.77;5.97;;;13.70;99.90;;;;;;4969629;28;20055;-72
2023/05/26 01:03:57;;;;;;;11.75;6.18;;;13.70;99.90;;;;;;4964715;28;20027;-72
2023/05/26 01:06:23;;;;;;;11.45;6.25;;;13.60;99.90;;;;;;4970422;28;20106;-72
2023/05/26 01:08:48;;;;;;;11.15;6.57;;;13.60;99.90;;;;;;4963643;28;20577;-73
2023/05/26 01:11:45;;;;;;;11.02;6.35;;;13.70;99.90;;;;;;4970113;28;20086;-73
2023/05/26 01:14:33;;;;;;;12.05;7.25;;;13.60;99.90;;;;;;4966803;28;20039;-71
2023/05/26 01:17:18;;;;;;;12.50;6.97;;;13.60;99.90;;;;;;4965829;28;20034;-71
2023/05/26 01:19:52;;;;;;;11.52;6.80;;;13.50;99.90;;;;;;4966140;28;20027;-72
2023/05/26 01:22:36;;;;;;;;;;;13.50;99.90;;;;;;4966703;28;20131;-72
2023/05/26 01:25:10;;;;;;;12.30;6.80;;;13.50;99.90;;;;;;4982941;28;19917;-72
2023/05/26 01:28:17;;;;;;;10.25;6.13;;;13.50;99.90;;;;;;4969433;28;20426;-71
2023/05/26 01:30:47;;;;;;;10.43;6.82;;;13.60;99.90;;;;;;4967931;28;20037;-71
2023/05/26 01:33:16;;;;;;;12.10;7.35;;;13.50;99.90;;;;;;4966563;28;20033;-71
2023/05/26 01:35:44;;;;;;;10.98;6.03;;;13.60;99.90;;;;;;4964958;28;20026;-71
2023/05/26 01:38:11;;;;;;;13.45;7.38;;;13.60;99.90;;;;;;4959655;28;20963;-71
2023/05/26 01:40:40;;;;;;;10.80;6.93;;;13.50;99.90;;;;;;4968381;28;20026;-71
2023/05/26 01:43:16;;;;;;;11.80;5.90;;;13.60;99.90;;;;;;4964346;28;20473;-71
2023/05/26 01:46:02;;;;;;;10.20;6.35;;;13.60;99.90;;;;;;4970221;28;20436;-71
2023/05/26 01:48:31;;;;;;;14.23;6.82;;;13.50;99.90;;;;;;4967003;28;20571;-71
2023/05/26 01:51:10;;;;;;;12.32;7.00;;;13.50;99.90;;;;;;4964308;28;20498;-72
2023/05/26 01:53:37;;;;;;;10.73;6.35;;;13.50;99.90;;;;;;4969808;28;20031;-72
2023/05/26 01:56:04;;;;;;;9.70;6.70;;;13.50;99.90;;;;;;4959819;28;20085;-72
2023/05/26 01:58:34;;;;;;;11.80;7.20;;;13.50;99.90;;;;;;4964657;28;20037;-71
2023/05/26 02:01:00;;;;;;;12.25;7.50;;;13.50;99.90;;;;;;4961326;28;20443;-73
2023/05/26 02:03:25;;;;;;;12.15;6.88;;;13.50;99.90;;;;;;4969267;28;20124;-73
2023/05/26 02:05:51;;;;;;;12.45;6.97;;;13.40;99.90;;;;;;4963789;28;20876;-72
2023/05/26 02:08:17;;;;;;;12.43;7.40;;;13.40;99.90;;;;;;4966357;28;20035;-72
2023/05/26 02:10:42;;;;;;;15.38;7.78;;;13.40;99.90;;;;;;4970924;28;20094;-72
2023/05/26 02:13:08;;;;;;;13.95;8.60;;;13.40;99.90;;;;;;4984787;28;20030;-72
2023/05/26 02:15:33;;;;;;;14.68;7.38;;;13.40;99.90;;;;;;4969955;28;20470;-72
2023/05/26 02:18:00;;;;;;;16.42;8.73;;;13.40;99.90;;;;;;4969925;28;20118;-72
2023/05/26 02:20:25;;;;;;;13.65;7.72;;;13.40;99.90;;;;;;4968021;28;20030;-72
2023/05/26 02:22:51;;;;;;;15.55;8.57;;;13.30;99.90;;;;;;4969731;28;20035;-72
2023/05/26 02:25:17;;;;;;;13.65;8.05;;;13.30;99.90;;;;;;4967565;28;20026;-72
2023/05/26 02:27:43;;;;;;;11.90;7.35;;;13.30;99.90;;;;;;4970178;28;20031;-72
2023/05/26 02:30:09;;;;;;;13.25;8.27;;;13.20;99.90;;;;;;4964658;28;20023;-72
2023/05/26 02:32:36;;;;;;;14.52;7.93;;;13.20;99.90;;;;;;4962504;28;20034;-72
2023/05/26 02:35:03;;;;;;;17.13;8.00;;;13.20;99.90;;;;;;4967941;28;20605;-72
2023/05/26 02:37:29;;;;;;;11.15;7.47;;;13.10;99.90;;;;;;4968518;28;20548;-72
2023/05/26 02:39:55;;;;;;;11.70;7.05;;;13.10;99.90;;;;;;4970381;28;20097;-72
2023/05/26 02:42:21;;;;;;;14.23;7.93;;;13.10;99.90;;;;;;4965862;28;20031;-72
2023/05/26 02:44:47;;;;;;;11.85;6.82;;;13.10;99.90;;;;;;4964415;28;20371;-72
2023/05/26 02:47:12;;;;;;;13.82;6.75;;;13.10;99.90;;;;;;4966438;28;20478;-72
2023/05/26 02:49:38;;;;;;;12.98;7.05;;;13.10;99.90;;;;;;4969092;28;20035;-72
2023/05/26 02:52:04;;;;;;;11.45;7.55;;;13.00;99.90;;;;;;4966779;28;20031;-72
2023/05/26 02:54:29;;;;;;;13.45;6.88;;;13.00;99.90;;;;;;4971359;28;20409;-72
2023/05/26 02:56:55;;;;;;;12.82;7.13;;;13.00;99.90;;;;;;4966166;28;20485;-73
2023/05/26 02:59:21;;;;;;;13.50;7.30;;;12.90;99.90;;;;;;4967557;28;20038;-72
2023/05/26 03:01:46;;;;;;;12.27;6.72;;;12.90;99.90;;;;;;4969562;28;20030;-72
2023/05/26 03:04:12;;;;;;;12.13;6.80;;;12.90;99.90;;;;;;4968204;28;20059;-72
2023/05/26 03:06:38;;;;;;;10.70;6.45;;;12.90;99.90;;;;;;4968286;28;20769;-72
2023/05/26 03:09:03;;;;;;;12.05;6.30;;;12.90;99.90;;;;;;4966700;28;20390;-73
2023/05/26 03:11:29;;;;;;;11.93;6.57;;;12.80;99.90;;;;;;4967853;28;20042;-72
2023/05/26 03:13:55;;;;;;;12.60;6.30;;;12.80;99.90;;;;;;4968016;28;20038;-72
2023/05/26 03:16:23;;;;;;;15.93;7.28;;;12.90;99.90;;;;;;4968626;28;20070;-72
2023/05/26 03:18:49;;;;;;;10.35;6.55;;;12.90;99.90;;;;;;4969372;28;20027;-72
2023/05/26 03:21:16;;;;;;;12.20;6.30;;;12.80;99.90;;;;;;4966364;28;20030;-72
2023/05/26 03:23:41;;;;;;;11.35;5.68;;;12.80;99.90;;;;;;4961785;28;20458;-72
2023/05/26 03:26:07;;;;;;;12.27;6.20;;;12.80;99.90;;;;;;4966232;28;20215;-72
2023/05/26 03:28:33;;;;;;;12.88;6.47;;;12.80;99.90;;;;;;4966448;28;20118;-72
2023/05/26 03:30:58;;;;;;;12.98;6.88;;;12.80;99.90;;;;;;4967679;28;20027;-72
2023/05/26 03:33:24;;;;;;;12.48;6.55;;;12.80;99.90;;;;;;4966154;28;20019;-72
2023/05/26 03:35:51;;;;;;;10.75;6.57;;;12.70;99.90;;;;;;4969107;28;20263;-72
2023/05/26 03:38:17;;;;;;;11.93;6.97;;;12.70;99.90;;;;;;4962764;28;20048;-72
2023/05/26 03:40:43;;;;;;;11.27;7.30;;;12.70;99.90;;;;;;4968687;28;20151;-72
2023/05/26 03:43:09;;;;;;;10.38;6.70;;;12.70;99.90;;;;;;4968935;28;20456;-72
2023/05/26 03:45:34;;;;;;;12.13;6.47;;;12.70;99.90;;;;;;4972648;28;20026;-72
2023/05/26 03:48:00;;;;;;;10.70;6.53;;;12.70;99.90;;;;;;4969567;28;20046;-72
2023/05/26 03:50:25;;;;;;;11.57;5.93;;;12.70;99.90;;;;;;4968868;28;20924;-72
2023/05/26 03:52:51;;;;;;;10.93;6.65;;;12.70;99.90;;;;;;4971522;28;20030;-72
2023/05/26 03:55:20;;;;;;;11.70;7.18;;;12.70;99.90;;;;;;4961368;28;20106;-73
2023/05/26 03:57:48;;;;;;;16.08;7.45;;;12.70;99.90;;;;;;4970296;28;20037;-73
2023/05/26 04:00:20;;;;;;;12.63;7.20;;;12.70;99.90;;;;;;4965865;28;20043;-71
2023/05/26 04:02:46;;;;;;;11.95;6.57;;;12.70;99.90;;;;;;4968369;28;20033;-71
2023/05/26 04:05:12;;;;;;;11.77;6.45;;;12.60;99.90;;;;;;4966336;28;20031;-71
2023/05/26 04:07:37;;;;;;;12.95;7.10;;;12.60;99.90;;;;;;4971483;28;20019;-71
2023/05/26 04:10:06;;;;;;;11.98;7.18;;;12.60;99.90;;;;;;4970428;28;20038;-71
2023/05/26 04:12:32;;;;;;;13.40;6.35;;;12.60;99.90;;;;;;4968446;28;20035;-71
2023/05/26 04:15:00;;;;;;;10.73;6.63;;;12.60;99.90;;;;;;4971619;28;20033;-71
2023/05/26 04:17:32;;;;;;;11.63;6.53;;;12.60;99.90;;;;;;4969592;28;20033;-71
2023/05/26 04:19:59;;;;;;;12.00;6.50;;;12.60;99.90;;;;;;4969796;28;20034;-71
2023/05/26 04:22:24;;;;;;;13.02;6.72;;;12.60;99.90;;;;;;4969152;28;20630;-71
2023/05/26 04:24:50;;;;;;;10.82;6.90;;;12.70;99.90;;;;;;4969316;28;20049;-71
2023/05/26 04:27:16;;;;;;;14.75;6.68;;;12.70;99.90;;;;;;4968920;28;20027;-71
2023/05/26 04:29:41;;;;;;;11.90;7.32;;;12.80;99.90;;;;;;4966090;28;20101;-71
2023/05/26 04:32:08;;;;;;;11.48;6.47;;;12.80;99.90;;;;;;4971269;28;20097;-71
2023/05/26 04:34:34;;;;;;;12.88;6.70;;;12.80;99.90;;;;;;4965331;28;20608;-71
2023/05/26 04:37:04;;;;;;;12.32;6.22;;;12.90;99.90;;;;;;4968478;28;20022;-71
2023/05/26 04:39:32;;;;;;;11.05;6.78;;;12.90;99.90;;;;;;4964624;28;20038;-71
2023/05/26 04:42:03;;;;;;;10.27;6.95;;;13.00;99.90;;;;;;4971483;28;20037;-71
2023/05/26 04:44:36;;;;;;;11.40;6.47;;;13.00;99.90;;;;;;4967339;28;20101;-71
2023/05/26 04:47:03;;;;;;;9.18;5.97;;;13.00;99.90;;;;;;4969249;28;20114;-71
2023/05/26 04:49:32;;;;;;;11.07;6.45;;;13.10;99.90;;;;;;4966331;28;20050;-72
2023/05/26 04:54:30;;;;;;;10.32;6.75;;;13.20;99.90;;;;;;4968324;28;20393;-75
2023/05/26 04:57:02;;;;;;;12.30;6.88;;;13.30;99.90;;;;;;4972890;28;20026;-74
2023/05/26 04:59:34;;;;;;;12.35;6.68;;;13.40;99.90;;;;;;4972833;28;20030;-74
2023/05/26 05:02:11;;;;;;;10.68;6.80;;;13.50;99.90;;;;;;4971260;28;20031;-75
2023/05/26 05:04:42;;;;;;;12.52;7.05;;;13.60;99.90;;;;;;4971618;28;20026;-75
2023/05/26 05:07:14;;;;;;;18.33;8.00;;;13.70;99.90;;;;;;4972695;28;20077;-76
2023/05/26 05:09:43;;;;;;;11.40;6.95;;;13.80;99.90;;;;;;4972886;28;20054;-74
2023/05/26 05:12:12;;;;;;;15.75;7.60;;;13.90;99.90;;;;;;4974967;28;20026;-76
2023/05/26 05:14:37;;;;;;;17.63;8.02;;;14.00;99.90;;;;;;4974581;28;20027;-75
2023/05/26 05:17:06;;;;;;;12.65;7.55;;;14.10;99.90;;;;;;4969615;28;20034;-75
2023/05/26 05:19:31;;;;;;;17.02;8.88;;;14.10;99.90;;;;;;4955167;28;20030;-70
2023/05/26 05:22:03;;;;;;;16.25;7.90;;;14.30;99.90;;;;;;4989072;28;20038;-70
2023/05/26 05:24:32;;;;;;;15.85;7.72;;;14.30;99.90;;;;;;4980955;28;20031;-75
2023/05/26 05:26:58;;;;;;;12.52;7.95;;;14.40;99.90;;;;;;4974535;28;20047;-77
2023/05/26 05:29:27;;;;;;;11.32;6.93;;;14.50;99.90;;;;;;4976187;28;20042;-75
2023/05/26 05:31:52;;;;;;;14.52;7.63;;;14.50;99.90;;;;;;4965776;28;20478;-77
2023/05/26 05:34:24;;;;;;;12.30;6.85;;;14.60;99.90;;;;;;4976795;28;20200;-77
2023/05/26 05:36:52;;;;;;;13.38;7.65;;;14.70;99.90;;;;;;4976074;28;20050;-76
2023/05/26 05:39:18;;;;;;;14.90;8.55;;;14.80;99.90;;;;;;4975467;28;20031;-76
2023/05/26 05:41:44;;;;;;;16.40;8.00;;;14.80;99.90;;;;;;4975141;28;20122;-76
2023/05/26 05:44:09;;;;;;;13.13;7.78;;;14.90;99.90;;;;;;4976545;28;20035;-75
2023/05/26 05:46:39;;;;;;;11.98;7.65;;;15.00;99.90;;;;;;4974111;28;20027;-77
2023/05/26 05:49:05;;;;;;;13.95;8.30;;;15.10;99.90;;;;;;4974526;28;20034;-76
2023/05/26 05:51:33;;;;;;;18.60;8.25;;;15.10;99.90;;;;;;4977503;28;20474;-76
2023/05/26 05:53:59;;;;;;;11.02;7.07;;;15.20;99.90;;;;;;4975959;28;20035;-75
2023/05/26 05:56:26;;;;;;;15.52;8.07;;;15.20;99.90;;;;;;4978211;28;20038;-77
2023/05/26 05:58:55;;;;;;;14.30;7.72;;;15.30;99.90;;;;;;4973405;28;20049;-70
2023/05/26 06:01:29;;;;;;;14.40;7.93;;;15.40;99.90;;;;;;4975680;28;20110;-69
2023/05/26 06:04:01;;;;;;;18.63;7.57;;;15.40;99.90;;;;;;4976388;28;20035;-69
2023/05/26 06:06:31;;;;;;;13.63;7.75;;;15.50;99.90;;;;;;4974320;28;20449;-69
2023/05/26 06:08:57;;;;;;;13.77;7.93;;;15.70;99.90;;;;;;4978163;28;20033;-71
2023/05/26 06:11:25;;;;;;;17.85;9.13;;;15.70;99.90;;;;;;4975539;28;20470;-69
2023/05/26 06:13:51;;;;;;;11.63;7.57;;;15.80;99.90;;;;;;4979866;28;20027;-68
2023/05/26 06:16:17;;;;;;;13.68;7.45;;;15.70;99.90;;;;;;4990760;28;20041;-69
2023/05/26 06:18:52;;;;;;;13.60;7.68;;;15.70;99.90;;;;;;4977144;28;20041;-69
2023/05/26 06:21:20;;;;;;;16.10;8.45;;;15.70;99.90;;;;;;4978231;28;20030;-69
2023/05/26 06:23:46;;;;;;;12.90;7.95;;;15.70;99.90;;;;;;4976385;28;20050;-77
2023/05/26 06:26:12;;;;;;;16.15;8.82;;;15.80;99.90;;;;;;4984017;28;20381;-77
2023/05/26 06:28:37;;;;;;;14.68;7.75;;;15.80;99.90;;;;;;4981771;28;20126;-76
2023/05/26 06:31:06;;;;;;;15.40;8.32;;;15.90;99.90;;;;;;4976374;28;20039;-75
2023/05/26 06:33:32;;;;;;;12.30;7.68;;;15.90;99.90;;;;;;4978484;28;20425;-76
2023/05/26 06:36:00;;;;;;;16.60;9.68;;;16.00;99.90;;;;;;4977389;28;20031;-76
2023/05/26 06:38:26;;;;;;;14.50;8.32;;;16.10;99.90;;;;;;4977895;28;20038;-77
2023/05/26 06:40:52;;;;;;;15.23;8.55;;;16.10;99.90;;;;;;4978261;28;20505;-75
2023/05/26 06:43:18;;;;;;;18.52;8.52;;;16.20;99.90;;;;;;4976545;28;20018;-77
2023/05/26 06:45:44;;;;;;;16.67;8.85;;;16.20;99.90;;;;;;4980468;28;20019;-77
2023/05/26 06:48:10;;;;;;;18.40;8.57;;;16.20;99.90;;;;;;4978798;28;20042;-77
2023/05/26 06:50:35;;;;;;;15.20;8.68;;;16.30;99.90;;;;;;4976979;28;20180;-77
2023/05/26 06:53:16;;;;;;;18.25;8.98;;;16.40;99.90;;;;;;4979049;28;20126;-77
2023/05/26 06:55:42;;;;;;;21.63;8.93;;;16.30;99.90;;;;;;4977348;28;20050;-77
2023/05/26 06:58:08;;;;;;;18.48;9.02;;;16.40;99.90;;;;;;4979555;28;20026;-76
2023/05/26 07:00:33;;;;;;;15.27;8.50;;;16.30;99.90;;;;;;4977007;28;20035;-76
2023/05/26 07:03:02;;;;;;;17.55;8.93;;;16.30;99.90;;;;;;4993597;28;20050;-77
2023/05/26 07:05:28;;;;;;;16.40;8.90;;;16.30;99.90;;;;;;4978135;28;20026;-77
2023/05/26 07:07:54;;;;;;;16.83;8.55;;;16.20;99.90;;;;;;4980464;28;20058;-78
2023/05/26 07:10:19;;;;;;;18.25;9.25;;;16.10;99.90;;;;;;4979362;28;20023;-76
2023/05/26 07:12:45;;;;;;;13.65;8.38;;;16.10;99.90;;;;;;4975704;28;20030;-70
2023/05/26 07:15:14;;;;;;;13.68;8.45;;;16.00;99.90;;;;;;4969136;28;20070;-71
2023/05/26 07:17:40;;;;;;;16.05;9.05;;;16.00;99.90;;;;;;4968989;28;20081;-72
2023/05/26 07:20:06;;;;;;;15.48;9.00;;;16.00;99.90;;;;;;4967583;28;20054;-71
2023/05/26 07:22:32;;;;;;;17.23;9.23;;;16.00;99.90;;;;;;4984118;28;20038;-71
2023/05/26 07:24:58;;;;;;;12.57;8.73;;;16.00;99.90;;;;;;4987317;28;20035;-71
2023/05/26 07:27:24;;;;;;;13.55;9.25;;;16.00;99.90;;;;;;4969537;28;20027;-71
2023/05/26 07:29:49;;;;;;;17.85;9.52;;;16.10;99.90;;;;;;4965017;28;20080;-71
2023/05/26 07:32:15;;;;;;;15.35;8.98;;;16.00;99.90;;;;;;4960646;28;20037;-72
2023/05/26 07:34:41;;;;;;;14.60;8.48;;;16.00;99.90;;;;;;4962447;28;20476;-71
2023/05/26 07:37:07;;;;;;;18.30;9.60;;;16.00;99.90;;;;;;4964769;28;20352;-71
2023/05/26 07:39:33;;;;;;;15.88;8.32;;;16.00;99.90;;;;;;4969218;28;20130;-71
2023/05/26 07:41:59;;;;;;;15.02;9.52;;;16.00;99.90;;;;;;4965317;28;20027;-71
2023/05/26 07:44:27;;;;;;;13.38;8.73;;;16.10;99.90;;;;;;4964254;28;20084;-70
2023/05/26 07:46:53;;;;;;;13.55;8.57;;;16.10;99.90;;;;;;4968367;28;20141;-70
2023/05/26 07:49:18;;;;;;;15.82;8.85;;;16.20;99.90;;;;;;4982847;28;20054;-70
2023/05/26 07:51:44;;;;;;;18.42;9.02;;;16.10;99.90;;;;;;4964144;28;20121;-69
2023/05/26 07:54:13;;;;;;;13.23;8.93;;;16.30;99.90;;;;;;4961795;28;20665;-70
2023/05/26 07:56:41;;;;;;;14.98;8.93;;;16.30;99.90;;;;;;4964212;28;20510;-70
2023/05/26 07:59:07;;;;;;;15.43;9.00;;;16.50;99.90;;;;;;4968672;28;20031;-71
2023/05/26 08:01:33;;;;;;;13.98;8.77;;;16.50;99.90;;;;;;4968129;28;20060;-70
2023/05/26 08:03:59;;;;;;;16.15;8.55;;;16.60;99.90;;;;;;4991045;28;20039;-76
2023/05/26 08:06:31;;;;;;;15.55;9.07;;;16.70;99.90;;;;;;4972139;28;20046;-76
2023/05/26 08:08:59;;;;;;;15.80;9.02;;;16.80;99.90;;;;;;4966560;28;20030;-76
2023/05/26 08:11:25;;;;;;;18.77;9.15;;;16.90;99.90;;;;;;4974745;28;20059;-76
2023/05/26 08:13:51;;;;;;;14.38;8.43;;;17.00;99.90;;;;;;4980053;28;20054;-76
2023/05/26 08:16:20;;;;;;;14.20;8.40;;;17.10;99.90;;;;;;4971153;28;20142;-75
2023/05/26 08:18:48;;;;;;;16.33;8.93;;;17.10;99.90;;;;;;4972317;28;20033;-76
2023/05/26 08:21:14;;;;;;;14.98;9.32;;;17.20;99.90;;;;;;4974613;28;20118;-76
2023/05/26 08:23:43;;;;;;;15.07;8.90;;;17.20;99.90;;;;;;4974687;28;20059;-76
2023/05/26 08:26:09;;;;;;;16.20;8.38;;;17.30;99.90;;;;;;4976567;28;20038;-76
2023/05/26 08:28:35;;;;;;;15.55;8.82;;;17.40;99.90;;;;;;4968687;28;21020;-76
2023/05/26 08:31:01;;;;;;;16.73;8.63;;;17.50;99.90;;;;;;4974586;28;20030;-76
2023/05/26 08:33:27;;;;;;;16.20;8.52;;;17.60;99.90;;;;;;4977769;28;20023;-75
2023/05/26 08:35:53;;;;;;;17.30;8.52;;;17.60;99.90;;;;;;4976089;28;20023;-76
2023/05/26 08:38:18;;;;;;;15.43;9.30;;;17.60;99.90;;;;;;4998825;28;20049;-75
2023/05/26 08:40:44;;;;;;;18.92;9.25;;;17.60;99.90;;;;;;4981754;28;20446;-74
2023/05/26 08:43:14;;;;;;;15.73;9.02;;;17.70;99.90;;;;;;4978206;28;20041;-76
2023/05/26 08:45:41;;;;;;;14.65;9.35;;;17.70;99.90;;;;;;4975753;28;20034;-76
2023/05/26 08:48:09;;;;;;;12.02;8.23;;;17.80;99.90;;;;;;4975653;28;20374;-74
2023/05/26 08:50:39;;;;;;;13.77;9.15;;;17.90;99.90;;;;;;4976271;28;20123;-74
2023/05/26 08:53:05;;;;;;;18.00;9.50;;;18.00;99.90;;;;;;4970261;28;20039;-77
2023/05/26 08:55:32;;;;;;;19.98;8.98;;;17.90;99.90;;;;;;4973197;28;20559;-78
2023/05/26 08:57:59;;;;;;;12.32;8.48;;;18.00;99.70;;;;;;4967385;28;20045;-76
2023/05/26 09:00:29;;;;;;;18.33;9.85;;;18.00;99.70;;;;;;4974121;28;20401;-75
2023/05/26 09:03:02;;;;;;;18.23;8.88;;;18.10;99.80;;;;;;4975717;28;20034;-77
2023/05/26 09:05:31;;;;;;;19.58;9.30;;;18.10;99.80;;;;;;4971451;28;20041;-77
2023/05/26 09:08:00;;;;;;;13.30;8.52;;;18.10;99.80;;;;;;4982580;28;20042;-78
2023/05/26 09:10:30;;;;;;;12.65;8.90;;;18.20;99.70;;;;;;4978769;28;20031;-77
2023/05/26 09:13:03;;;;;;;13.93;8.70;;;18.20;99.30;;;;;;4976258;28;20022;-76
2023/05/26 09:15:29;;;;;;;18.52;8.93;;;18.20;98.70;;;;;;4969608;28;20026;-74
2023/05/26 09:18:12;;;;;;;50.53;11.88;;;18.30;98.80;;;;;;4971082;28;20054;-77
2023/05/26 09:20:43;;;;;;;16.58;8.07;;;18.40;98.60;;;;;;4970183;28;20042;-76
2023/05/26 09:23:09;;;;;;;16.67;8.13;;;18.50;98.50;;;;;;4966535;28;20039;-77
2023/05/26 09:25:36;;;;;;;14.55;8.15;;;18.50;98.00;;;;;;4973188;28;20027;-77
2023/05/26 09:28:07;;;;;;;15.10;8.38;;;18.60;98.20;;;;;;4979713;28;20393;-77
2023/05/26 09:30:44;;;;;;;14.38;7.57;;;18.70;97.90;;;;;;4981739;28;20101;-76
2023/05/26 09:33:17;;;;;;;14.35;7.70;;;18.70;97.40;;;;;;4986460;28;20019;-76
2023/05/26 09:35:45;;;;;;;15.88;7.55;;;18.80;97.30;;;;;;4988130;28;20018;-74
2023/05/26 09:38:14;;;;;;;14.15;7.22;;;18.80;97.10;;;;;;4975116;28;20035;-78
2023/05/26 09:40:45;;;;;;;11.90;6.95;;;18.90;96.90;;;;;;4970269;28;20061;-77
2023/05/26 09:43:11;;;;;;;11.65;7.38;;;19.00;96.70;;;;;;4976868;28;20041;-76
2023/05/26 09:45:38;;;;;;;16.60;8.18;;;19.00;96.20;;;;;;4978049;28;20568;-76
2023/05/26 09:48:05;;;;;;;11.77;7.20;;;19.00;96.20;;;;;;4969826;28;20023;-75
2023/05/26 09:50:32;;;;;;;13.23;8.07;;;19.00;96.30;;;;;;4973549;28;20037;-76
2023/05/26 09:53:04;;;;;;;13.73;7.60;;;19.10;96.50;;;;;;4975739;28;20404;-76
2023/05/26 09:55:30;;;;;;;14.77;7.95;;;19.10;96.40;;;;;;4978244;28;20031;-76
2023/05/26 09:58:21;;;;;;;13.63;7.45;;;19.10;96.50;;;;;;4973561;28;20130;-76
2023/05/26 10:00:46;;;;;;;16.25;8.50;;;19.20;96.50;;;;;;4967647;28;20113;-75
2023/05/26 10:03:21;;;;;;;14.02;7.45;;;19.20;96.30;;;;;;4973316;28;20450;-76
2023/05/26 10:05:53;;;;;;;14.88;7.85;;;19.30;96.30;;;;;;4973386;28;20019;-77
2023/05/26 10:08:20;;;;;;;15.70;7.53;;;19.30;96.00;;;;;;4972773;28;20035;-77
2023/05/26 10:10:50;;;;;;;16.35;7.82;;;19.40;96.10;;;;;;4971772;28;20019;-75
2023/05/26 10:13:17;;;;;;;13.38;7.63;;;19.40;96.20;;;;;;4968947;28;20051;-75
2023/05/26 10:15:47;;;;;;;17.13;7.78;;;19.60;96.10;;;;;;4970942;28;20057;-76
2023/05/26 10:18:13;;;;;;;13.05;7.22;;;19.60;95.90;;;;;;4971177;28;20043;-75
2023/05/26 10:20:44;;;;;;;14.60;7.22;;;19.60;95.40;;;;;;4974929;28;20038;-75
2023/05/26 10:23:16;;;;;;;12.20;6.43;;;19.70;95.20;;;;;;4977758;28;20086;-74
2023/05/26 10:25:47;;;;;;;14.90;7.20;;;19.80;95.20;;;;;;4974707;28;20492;-75
2023/05/26 10:28:34;;;;;;;11.80;6.80;;;19.80;94.80;;;;;;4973636;28;20086;-75
2023/05/26 10:31:06;;;;;;;14.63;6.80;;;19.80;95.10;;;;;;4972308;28;20658;-75
2023/05/26 10:33:39;;;;;;;14.25;7.38;;;19.90;95.30;;;;;;4975714;28;20065;-75
2023/05/26 10:36:10;;;;;;;15.35;8.07;;;20.00;95.00;;;;;;4975167;28;20536;-74
2023/05/26 10:38:42;;;;;;;12.10;7.75;;;20.10;94.80;;;;;;4973104;28;20054;-73
2023/05/26 10:41:35;;;;;;;14.93;7.45;;;20.10;94.80;;;;;;4964067;28;20039;-74
2023/05/26 10:44:04;;;;;;;13.32;7.45;;;20.20;94.60;;;;;;4965611;28;20081;-75
2023/05/26 10:46:45;;;;;;;15.13;7.30;;;20.20;94.10;;;;;;4969051;28;20035;-75
2023/05/26 10:49:21;;;;;;;13.40;7.47;;;20.20;94.00;;;;;;4953199;29;20031;-76
2023/05/26 10:51:53;;;;;;;11.98;6.90;;;20.20;94.10;;;;;;4970489;28;20098;-75
2023/05/26 10:54:25;;;;;;;12.88;7.15;;;20.20;94.20;;;;;;4996793;23;20567;-73
2023/05/26 10:56:54;;;;;;;9.80;6.32;;;20.20;94.30;;;;;;4961683;28;20034;-74
2023/05/26 10:59:32;;;;;;;14.43;7.60;;;20.20;94.40;;;;;;4966349;28;20034;-73
2023/05/26 11:02:07;;;;;;;11.70;6.63;;;20.20;94.10;;;;;;4962696;28;20026;-74
2023/05/26 11:04:47;;;;;;;12.60;6.55;;;20.30;93.90;;;;;;4959796;28;20528;-73
2023/05/26 11:07:29;;;;;;;12.82;6.40;;;20.40;93.90;;;;;;4943984;28;20106;-73
2023/05/26 11:10:08;;;;;;;14.68;7.00;;;20.50;93.20;;;;;;4941903;28;20122;-73
2023/05/26 11:12:57;;;;;;;13.63;7.45;;;20.60;93.50;;;;;;4943625;28;20033;-72
2023/05/26 11:15:30;;;;;;;14.73;8.35;;;20.60;93.40;;;;;;4938547;28;20027;-72
2023/05/26 11:18:00;;;;;;;17.00;6.82;;;20.60;93.70;;;;;;4943097;28;20029;-74
2023/05/26 11:20:26;;;;;;;15.88;7.70;;;20.70;93.30;;;;;;4945820;28;20082;-74
2023/05/26 11:22:58;;;;;;;14.63;7.53;;;20.70;92.80;;;;;;4945127;28;20051;-74
2023/05/26 11:25:25;;;;;;;13.18;7.30;;;20.70;93.20;;;;;;4947314;28;20438;-74
2023/05/26 11:28:06;;;;;;;10.95;7.18;;;20.80;93.20;;;;;;4943264;28;20601;-75
2023/05/26 11:30:35;;;;;;;15.23;6.72;;;20.80;93.30;;;;;;4943333;28;20494;-74
2023/05/26 11:33:10;;;;;;;10.30;6.72;;;21.00;92.80;;;;;;4943224;28;20486;-74
2023/05/26 11:35:37;;;;;;;10.77;7.07;;;21.00;92.80;;;;;;4948339;28;20078;-76
2023/05/26 11:38:05;;;;;;;18.40;8.45;;;21.10;92.70;;;;;;4948438;28;20186;-74
2023/05/26 11:40:32;;;;;;;12.48;7.55;;;21.00;92.60;;;;;;4943548;28;20038;-73
2023/05/26 11:42:58;;;;;;;10.88;6.63;;;21.10;92.60;;;;;;4945302;28;20031;-73
2023/05/26 11:45:29;;;;;;;9.45;6.20;;;21.10;92.30;;;;;;4946665;28;20034;-73
2023/05/26 11:47:55;;;;;;;12.32;6.50;;;21.10;92.30;;;;;;4943619;28;20035;-73
2023/05/26 11:50:26;;;;;;;10.95;6.22;;;21.10;92.60;;;;;;4947440;28;20042;-73
2023/05/26 11:52:55;;;;;;;16.08;6.57;;;21.10;92.50;;;;;;4944895;28;20055;-73
2023/05/26 11:55:24;;;;;;;16.00;6.35;;;21.20;92.60;;;;;;4941844;28;20084;-74
2023/05/26 11:57:51;;;;;;;16.40;7.80;;;21.30;92.90;;;;;;4964323;28;20032;-74
2023/05/26 12:00:19;;;;;;;16.98;7.22;;;21.30;92.30;;;;;;4947396;28;20027;-73
2023/05/26 12:02:48;;;;;;;12.35;6.20;;;21.30;92.20;;;;;;4947542;28;20031;-73
2023/05/26 12:05:26;;;;;;;9.57;5.75;;;21.40;92.00;;;;;;4950630;28;20042;-72
2023/05/26 12:08:07;;;;;;;14.00;6.53;;;21.30;92.10;;;;;;4952235;28;20489;-74
2023/05/26 12:10:33;;;;;;;14.88;6.95;;;21.40;92.00;;;;;;4957267;28;20134;-73
2023/05/26 12:13:00;;;;;;;11.05;6.60;;;21.50;92.10;;;;;;4972798;28;20023;-72
2023/05/26 12:15:26;;;;;;;11.35;6.25;;;21.50;91.90;;;;;;4958022;28;20374;-73
2023/05/26 12:17:53;;;;;;;16.40;6.82;;;21.50;91.90;;;;;;4948992;29;20028;-71
2023/05/26 12:20:20;;;;;;;17.75;7.25;;;21.50;91.90;;;;;;4952832;29;20030;-72
2023/05/26 12:23:01;;;;;;;15.13;6.40;;;21.50;91.80;;;;;;4956114;28;20122;-72
2023/05/26 12:25:34;;;;;;;12.10;7.32;;;21.50;91.80;;;;;;4976250;28;20203;-72
2023/05/26 12:28:06;;;;;;;12.50;6.97;;;21.40;91.80;;;;;;4974975;28;20477;-72
2023/05/26 12:30:37;;;;;;;10.95;6.30;;;21.40;91.90;;;;;;4983831;28;20036;-73
2023/05/26 12:33:03;;;;;;;13.55;6.82;;;21.40;92.10;;;;;;4947416;28;20026;-74
2023/05/26 12:35:32;;;;;;;14.85;7.57;;;21.50;92.20;;;;;;4949642;28;20039;-74
2023/05/26 12:37:57;;;;;;;10.88;6.40;;;21.60;92.00;;;;;;4946461;28;20174;-72
2023/05/26 12:40:35;;;;;;;10.45;6.53;;;21.60;92.00;;;;;;4949958;28;20118;-72
2023/05/26 12:43:01;;;;;;;14.48;6.43;;;21.60;91.80;;;;;;4936989;28;20143;-73
2023/05/26 12:45:27;;;;;;;9.10;6.13;;;21.60;91.80;;;;;;4946138;28;20171;-73
2023/05/26 12:47:53;;;;;;;14.43;6.38;;;21.60;91.60;;;;;;4947286;28;20031;-73